createdAt,value
2023-01-12T00:01:15.456Z,8.60
2023-01-12T00:05:16.995Z,8.60
2023-01-12T00:09:18.396Z,8.20
2023-01-12T00:13:19.605Z,8.40
2023-01-12T00:17:20.795Z,8.20
2023-01-12T00:21:21.911Z,8.40
2023-01-12T00:25:23.147Z,8.40
2023-01-12T00:29:25.828Z,8.90
2023-01-12T00:33:26.838Z,8.30
2023-01-12T00:37:28.391Z,8.70
2023-01-12T00:41:48.140Z,8.90
2023-01-12T00:45:51.321Z,8.30
2023-01-12T00:49:52.599Z,8.00
2023-01-12T00:53:53.955Z,8.20
2023-01-12T01:02:18.862Z,8.30
2023-01-12T01:06:20.420Z,8.50
2023-01-12T01:10:21.652Z,8.10
2023-01-12T01:14:23.454Z,8.10
2023-01-12T01:18:25.329Z,7.70
2023-01-12T01:22:27.399Z,7.80
2023-01-12T01:26:30.297Z,8.10
2023-01-12T01:30:31.385Z,7.70
2023-01-12T01:34:32.774Z,7.80
2023-01-12T01:38:34.136Z,7.70
2023-01-12T01:42:35.276Z,7.90
2023-01-12T01:46:40.244Z,7.60
2023-01-12T01:50:45.199Z,7.60
2023-01-12T01:54:52.861Z,7.60
2023-01-12T01:58:57.884Z,7.40
2023-01-12T02:03:01.513Z,7.40
2023-01-12T02:07:03.070Z,7.80
2023-01-12T02:11:07.069Z,7.40
2023-01-12T02:15:27.565Z,7.70
2023-01-12T02:19:41.606Z,7.50
2023-01-12T02:23:58.961Z,7.90
2023-01-12T02:28:12.720Z,7.70
2023-01-12T02:32:29.830Z,7.70
2023-01-12T02:36:40.905Z,7.50
2023-01-12T02:40:51.840Z,7.90
2023-01-12T02:44:56.826Z,7.50
2023-01-12T02:49:04.540Z,7.50
2023-01-12T02:53:09.477Z,7.30
2023-01-12T02:57:10.838Z,7.50
2023-01-12T03:01:14.753Z,7.50
2023-01-12T03:05:16.155Z,7.70
2023-01-12T03:09:18.413Z,7.40
2023-01-12T03:13:20.201Z,7.50
2023-01-12T03:17:29.949Z,7.30
2023-01-12T03:21:50.096Z,7.60
2023-01-12T03:25:54.255Z,7.50
2023-01-12T03:30:02.128Z,7.60
2023-01-12T03:34:04.293Z,7.70
2023-01-12T03:38:24.395Z,7.50
2023-01-12T03:42:35.474Z,8.30
2023-01-12T03:46:43.196Z,8.00
2023-01-12T03:50:47.955Z,7.80
2023-01-12T03:54:51.160Z,8.30
2023-01-12T03:58:52.627Z,8.10
2023-01-12T04:03:09.689Z,8.60
2023-01-12T04:07:10.790Z,8.10
2023-01-12T04:11:30.567Z,8.00
2023-01-12T04:15:33.593Z,8.30
2023-01-12T04:19:34.558Z,7.90
2023-01-12T04:23:35.708Z,7.90
2023-01-12T04:27:43.628Z,8.10
2023-01-12T04:31:44.764Z,8.20
2023-01-12T04:35:46.639Z,8.30
2023-01-12T04:39:47.579Z,8.00
2023-01-12T04:43:48.556Z,8.00
2023-01-12T04:47:49.674Z,8.50
2023-01-12T04:51:50.796Z,7.80
2023-01-12T04:55:51.837Z,8.20
2023-01-12T04:59:52.901Z,8.10
2023-01-12T05:03:56.053Z,8.10
2023-01-12T05:08:22.857Z,8.10
2023-01-12T05:12:24.099Z,8.00
2023-01-12T05:16:25.539Z,8.30
2023-01-12T05:20:26.508Z,8.50
2023-01-12T05:24:27.476Z,8.00
2023-01-12T05:28:29.004Z,8.30
2023-01-12T05:32:30.074Z,7.90
2023-01-12T05:36:31.116Z,8.10
2023-01-12T05:40:32.257Z,7.90
2023-01-12T05:44:33.243Z,8.10
2023-01-12T05:48:34.124Z,7.80
2023-01-12T05:52:35.297Z,8.80
2023-01-12T05:56:36.478Z,8.50
2023-01-12T06:00:37.508Z,8.30
2023-01-12T06:04:38.888Z,8.10
2023-01-12T06:08:39.794Z,8.10
2023-01-12T06:12:59.282Z,8.00
2023-01-12T06:17:00.370Z,8.20
2023-01-12T06:21:02.887Z,7.90
2023-01-12T06:25:04.357Z,7.90
2023-01-12T06:29:06.523Z,7.70
2023-01-12T06:33:07.508Z,7.80
2023-01-12T06:37:10.572Z,7.90
2023-01-12T06:41:14.870Z,7.60
2023-01-12T06:45:16.468Z,7.90
2023-01-12T06:49:17.831Z,7.90
2023-01-12T06:53:18.769Z,7.80
2023-01-12T06:57:19.814Z,7.60
2023-01-12T07:01:21.059Z,7.70
2023-01-12T07:05:22.054Z,7.70
2023-01-12T07:09:23.430Z,7.60
2023-01-12T07:13:24.363Z,7.70
2023-01-12T07:17:25.455Z,7.60
2023-01-12T07:21:26.387Z,7.60
2023-01-12T07:25:27.592Z,7.70
2023-01-12T07:29:28.664Z,8.10
2023-01-12T07:33:30.133Z,8.00
2023-01-12T07:37:31.139Z,7.60
2023-01-12T07:41:50.400Z,7.80
2023-01-12T07:45:51.665Z,7.50
2023-01-12T07:49:52.616Z,8.10
2023-01-12T07:53:53.724Z,8.10
2023-01-12T07:57:56.625Z,7.70
2023-01-12T08:01:58.857Z,7.90
2023-01-12T08:06:00.426Z,8.00
2023-01-12T08:10:02.424Z,8.10
2023-01-12T08:14:05.169Z,7.50
2023-01-12T08:18:11.044Z,7.70
2023-01-12T08:22:19.304Z,7.70
2023-01-12T08:26:24.325Z,7.50
2023-01-12T08:30:26.564Z,7.60
2023-01-12T08:34:27.976Z,7.80
2023-01-12T08:38:29.653Z,7.70
2023-01-12T08:42:31.877Z,7.70
2023-01-12T08:46:36.921Z,8.00
2023-01-12T08:50:38.082Z,8.00
2023-01-12T08:54:39.231Z,8.10
2023-01-12T08:58:40.594Z,8.20
2023-01-12T09:02:41.591Z,8.50
2023-01-12T09:06:44.753Z,7.80
2023-01-12T09:10:45.755Z,8.00
2023-01-12T09:14:46.965Z,8.40
2023-01-12T09:18:48.181Z,8.30
2023-01-12T09:22:49.329Z,7.90
2023-01-12T09:26:50.340Z,8.20
2023-01-12T09:30:51.655Z,8.20
2023-01-12T09:34:53.702Z,8.70
2023-01-12T09:38:55.422Z,8.20
2023-01-12T09:43:15.035Z,8.20
2023-01-12T09:47:45.610Z,8.40
2023-01-12T09:52:11.302Z,8.70
2023-01-12T09:56:21.885Z,8.90
2023-01-12T10:00:23.780Z,8.40
2023-01-12T10:04:25.157Z,8.80
2023-01-12T10:08:44.329Z,8.40
2023-01-12T10:12:52.169Z,8.20
2023-01-12T10:17:24.985Z,8.60
2023-01-12T10:21:28.942Z,8.70
2023-01-12T10:25:46.055Z,8.90
2023-01-12T10:29:47.853Z,8.90
2023-01-12T10:34:06.372Z,8.70
2023-01-12T10:38:11.348Z,9.20
2023-01-12T10:42:42.202Z,8.80
2023-01-12T10:46:43.380Z,9.10
2023-01-12T10:50:48.161Z,8.70
2023-01-12T10:54:49.528Z,9.00
2023-01-12T10:59:06.463Z,9.20
2023-01-12T11:03:26.526Z,8.90
2023-01-12T11:07:28.442Z,8.70
2023-01-12T11:11:32.042Z,8.70
2023-01-12T11:15:36.241Z,9.10
2023-01-12T11:19:40.607Z,9.70
2023-01-12T11:23:53.251Z,9.50
2023-01-12T11:28:03.819Z,9.20
2023-01-12T11:32:14.393Z,9.30
2023-01-12T11:36:31.462Z,9.70
2023-01-12T11:40:34.513Z,9.80
2023-01-12T11:44:51.290Z,9.10
2023-01-12T11:49:17.391Z,9.00
2023-01-12T11:53:21.768Z,9.40
2023-01-12T11:57:35.845Z,9.20
2023-01-12T12:01:49.667Z,9.40
2023-01-12T12:06:09.797Z,9.30
2023-01-12T12:10:17.713Z,9.30
2023-01-12T12:14:39.873Z,9.60
2023-01-12T12:19:04.248Z,9.40
2023-01-12T12:23:12.124Z,9.70
2023-01-12T12:27:36.409Z,10.10
2023-01-12T12:32:04.668Z,9.60
2023-01-12T12:36:16.595Z,10.10
2023-01-12T12:41:02.271Z,9.50
2023-01-12T12:45:27.216Z,9.50
2023-01-12T12:49:32.095Z,9.70
2023-01-12T12:53:41.611Z,9.90
2023-01-12T12:58:01.443Z,9.90
2023-01-12T13:02:03.140Z,9.90
2023-01-12T13:06:16.402Z,10.00
2023-01-12T13:10:21.595Z,9.80
2023-01-12T13:14:37.009Z,10.30
2023-01-12T13:18:53.993Z,10.70
2023-01-12T13:22:56.158Z,10.20
2023-01-12T13:26:59.263Z,10.20
2023-01-12T13:31:01.837Z,10.40
2023-01-12T13:35:03.858Z,9.90
2023-01-12T13:39:06.788Z,9.70
2023-01-12T13:43:21.632Z,9.50
2023-01-12T13:47:26.145Z,9.60
2023-01-12T13:51:30.985Z,10.00
2023-01-12T13:55:35.424Z,10.20
2023-01-12T13:59:36.683Z,9.70
2023-01-12T14:04:07.415Z,9.80
2023-01-12T14:08:15.313Z,9.70
2023-01-12T14:12:29.036Z,10.10
2023-01-12T14:17:05.916Z,10.20
2023-01-12T14:20:58.799Z,10.20
2023-01-12T14:25:18.773Z,10.20
2023-01-12T14:29:20.571Z,10.10
2023-01-12T14:33:25.415Z,10.10
2023-01-12T14:37:30.581Z,10.10
2023-01-12T14:41:50.868Z,9.90
2023-01-12T14:46:08.660Z,9.90
2023-01-12T14:50:19.441Z,9.80
2023-01-12T14:54:26.910Z,9.80
2023-01-12T14:58:28.218Z,9.60
2023-01-12T15:02:33.183Z,10.10
2023-01-12T15:06:40.096Z,10.10
2023-01-12T15:10:43.457Z,10.00
2023-01-12T15:14:44.565Z,10.40
2023-01-12T15:19:04.521Z,10.40
2023-01-12T15:23:29.188Z,10.10
2023-01-12T15:27:30.512Z,9.80
2023-01-12T15:31:36.735Z,10.40
2023-01-12T15:35:45.278Z,10.40
2023-01-12T15:39:47.069Z,10.10
2023-01-12T15:43:48.027Z,10.70
2023-01-12T15:47:49.079Z,10.70
2023-01-12T15:51:51.197Z,10.60
2023-01-12T15:55:52.597Z,10.90
2023-01-12T15:59:53.689Z,10.60
2023-01-12T16:04:21.313Z,10.70
2023-01-12T16:07:57.690Z,10.60
2023-01-12T16:11:58.855Z,10.40
2023-01-12T16:16:00.299Z,10.60
2023-01-12T16:20:01.426Z,10.40
2023-01-12T16:24:04.124Z,10.30
2023-01-12T16:28:05.195Z,10.30
2023-01-12T16:32:08.020Z,10.20
2023-01-12T16:36:10.288Z,10.80
2023-01-12T16:40:12.679Z,10.40
2023-01-12T16:44:15.670Z,10.40
2023-01-12T16:48:18.035Z,10.00
2023-01-12T16:52:21.741Z,10.30
2023-01-12T16:56:23.514Z,10.40
2023-01-12T17:00:26.688Z,10.60
2023-01-12T17:04:28.813Z,10.60
2023-01-12T17:08:29.798Z,10.40
2023-01-12T17:12:30.800Z,9.90
2023-01-12T17:16:31.813Z,9.80
2023-01-12T17:20:33.790Z,10.30
2023-01-12T17:24:38.772Z,10.20
2023-01-12T17:28:40.751Z,10.10
2023-01-12T17:32:42.146Z,10.60
2023-01-12T17:36:43.354Z,10.40
2023-01-12T17:40:44.460Z,9.80
2023-01-12T17:44:45.597Z,10.20
2023-01-12T17:48:49.505Z,10.50
2023-01-12T17:52:50.612Z,9.90
2023-01-12T17:56:51.899Z,10.20
2023-01-12T18:00:53.474Z,10.00
2023-01-12T18:04:54.784Z,10.30
2023-01-12T18:08:58.849Z,10.00
2023-01-12T18:12:59.834Z,10.90
2023-01-12T18:17:01.239Z,10.40
2023-01-12T18:21:03.985Z,10.70
2023-01-12T18:25:05.624Z,10.00
2023-01-12T18:29:06.878Z,10.10
2023-01-12T18:33:08.710Z,10.10
2023-01-12T18:37:11.157Z,10.00
2023-01-12T18:41:31.068Z,10.20
2023-01-12T18:45:32.374Z,10.00
2023-01-12T18:49:34.943Z,10.30
2023-01-12T18:53:36.001Z,9.90
2023-01-12T18:57:38.719Z,9.80
2023-01-12T19:01:40.952Z,10.20
2023-01-12T19:06:02.073Z,10.10
2023-01-12T19:10:03.835Z,9.60
2023-01-12T19:14:24.732Z,10.20
2023-01-12T19:18:26.479Z,9.90
2023-01-12T19:22:46.772Z,9.50
2023-01-12T19:27:06.365Z,9.80
2023-01-12T19:31:10.386Z,9.80
2023-01-12T19:35:12.069Z,10.50
2023-01-12T19:39:13.493Z,10.00
2023-01-12T19:43:20.485Z,10.00
2023-01-12T19:47:21.973Z,10.10
2023-01-12T19:51:23.463Z,9.60
2023-01-12T19:55:25.632Z,10.10
2023-01-12T19:59:27.817Z,9.90
2023-01-12T20:03:29.822Z,9.70
2023-01-12T20:07:31.529Z,9.80
2023-01-12T20:11:33.036Z,9.80
2023-01-12T20:15:36.472Z,9.20
2023-01-12T20:19:37.804Z,9.60
2023-01-12T20:23:39.062Z,9.70
2023-01-12T20:27:42.515Z,9.60
2023-01-12T20:31:44.568Z,9.40
2023-01-12T20:35:48.538Z,9.30
2023-01-12T20:39:51.923Z,9.50
2023-01-12T20:43:53.448Z,9.80
2023-01-12T20:47:56.051Z,10.10
2023-01-12T20:51:59.664Z,10.30
2023-01-12T20:56:01.439Z,10.00
2023-01-12T21:00:06.223Z,9.60
2023-01-12T21:04:08.602Z,9.90
2023-01-12T21:08:12.485Z,9.90
2023-01-12T21:12:16.091Z,9.50
2023-01-12T21:16:19.536Z,9.70
2023-01-12T21:20:20.893Z,10.00
2023-01-12T21:24:22.976Z,10.10
2023-01-12T21:28:24.539Z,10.10
2023-01-12T21:32:26.462Z,9.90
2023-01-12T21:36:27.711Z,10.10
2023-01-12T21:40:29.284Z,9.80
2023-01-12T21:44:30.389Z,9.80
2023-01-12T21:48:31.800Z,9.90
2023-01-12T21:52:33.679Z,9.50
2023-01-12T21:56:34.710Z,9.60
2023-01-12T22:00:35.806Z,9.30
2023-01-12T22:04:36.796Z,9.70
2023-01-12T22:08:39.789Z,9.60
2023-01-12T22:12:40.944Z,9.70
2023-01-12T22:16:42.028Z,9.30
2023-01-12T22:20:44.178Z,9.30
2023-01-12T22:24:45.265Z,9.60
2023-01-12T22:28:48.698Z,9.20
2023-01-12T22:32:56.550Z,9.40
2023-01-12T22:36:59.111Z,9.30
2023-01-12T22:41:09.605Z,9.30
2023-01-12T22:45:13.211Z,9.30
2023-01-12T22:49:14.692Z,9.40
2023-01-12T22:53:15.725Z,9.50
2023-01-12T22:57:16.681Z,9.70
2023-01-12T23:01:19.514Z,9.50
2023-01-12T23:05:20.609Z,9.70
2023-01-12T23:09:21.714Z,9.80
2023-01-12T23:13:22.681Z,9.30
2023-01-12T23:17:23.809Z,9.20
2023-01-12T23:21:27.018Z,9.50
2023-01-12T23:25:28.341Z,10.10
2023-01-12T23:29:29.777Z,9.70
2023-01-12T23:33:31.044Z,9.90
2023-01-12T23:37:31.997Z,9.30
2023-01-12T23:41:35.160Z,9.30
2023-01-12T23:45:36.481Z,9.60
2023-01-12T23:49:37.468Z,10.00
2023-01-12T23:53:38.482Z,9.70
2023-01-12T23:57:39.423Z,9.70
